createdAt,value
2018-11-11T00:00:57.869Z,12.36
2018-11-11T00:03:25.155Z,12.36
2018-11-11T00:05:52.388Z,12.35
2018-11-11T00:08:19.693Z,12.36
2018-11-11T00:10:47.033Z,12.36
2018-11-11T00:13:14.340Z,12.35
2018-11-11T00:15:41.608Z,12.23
2018-11-11T00:18:08.875Z,12.23
2018-11-11T00:20:36.067Z,12.22
2018-11-11T00:23:03.331Z,12.19
2018-11-11T00:25:30.547Z,12.17
2018-11-11T00:27:57.829Z,12.16
2018-11-11T00:30:25.014Z,12.08
2018-11-11T00:32:52.274Z,12.01
2018-11-11T00:35:19.488Z,11.95
2018-11-11T00:37:46.712Z,11.90
2018-11-11T00:40:14.828Z,11.88
2018-11-11T00:42:42.267Z,11.91
2018-11-11T00:45:10.136Z,11.76
2018-11-11T00:47:37.533Z,11.71
2018-11-11T00:50:06.039Z,11.62
2018-11-11T00:52:33.329Z,11.56
2018-11-11T00:55:00.571Z,11.56
2018-11-11T00:57:27.844Z,11.56
2018-11-11T00:59:55.161Z,11.51
2018-11-11T01:02:22.490Z,11.55
2018-11-11T01:04:49.695Z,11.55
2018-11-11T01:07:17.183Z,11.57
2018-11-11T01:09:44.450Z,11.59
2018-11-11T01:12:11.806Z,11.61
2018-11-11T01:14:39.030Z,11.62
2018-11-11T01:17:06.701Z,11.61
2018-11-11T01:19:33.972Z,11.56
2018-11-11T01:22:01.236Z,11.53
2018-11-11T01:24:28.501Z,11.50
2018-11-11T01:26:55.830Z,11.48
2018-11-11T01:29:23.026Z,11.52
2018-11-11T01:31:50.332Z,11.57
2018-11-11T01:34:17.592Z,11.62
2018-11-11T01:36:44.857Z,11.61
2018-11-11T01:39:12.170Z,11.59
2018-11-11T01:41:39.421Z,11.60
2018-11-11T01:44:07.624Z,11.58
2018-11-11T01:46:34.922Z,11.58
2018-11-11T01:49:02.197Z,11.64
2018-11-11T01:51:29.460Z,11.55
2018-11-11T01:53:56.690Z,11.46
2018-11-11T01:56:25.116Z,11.31
2018-11-11T01:58:52.379Z,11.23
2018-11-11T02:01:19.619Z,11.08
2018-11-11T02:03:46.834Z,11.19
2018-11-11T02:06:14.029Z,11.19
2018-11-11T02:08:41.287Z,11.14
2018-11-11T02:11:08.581Z,11.18
2018-11-11T02:13:35.815Z,11.19
2018-11-11T02:16:03.183Z,11.11
2018-11-11T02:18:30.556Z,11.11
2018-11-11T02:20:57.905Z,11.05
2018-11-11T02:23:25.129Z,11.04
2018-11-11T02:25:52.337Z,11.05
2018-11-11T02:28:19.554Z,11.07
2018-11-11T02:30:46.857Z,11.12
2018-11-11T02:33:14.074Z,11.21
2018-11-11T02:35:41.302Z,11.26
2018-11-11T02:38:08.576Z,11.26
2018-11-11T02:40:35.781Z,11.29
2018-11-11T02:43:03.062Z,11.33
2018-11-11T02:45:30.324Z,11.36
2018-11-11T02:47:57.615Z,11.41
2018-11-11T02:50:24.890Z,11.43
2018-11-11T02:52:52.110Z,11.42
2018-11-11T02:55:19.349Z,11.45
2018-11-11T02:57:47.064Z,11.59
2018-11-11T03:00:16.698Z,11.57
2018-11-11T03:02:44.728Z,11.64
2018-11-11T03:05:13.141Z,11.62
2018-11-11T03:07:40.438Z,11.60
2018-11-11T03:10:08.646Z,11.66
2018-11-11T03:12:36.024Z,11.73
2018-11-11T03:15:03.446Z,11.55
2018-11-11T03:17:30.693Z,11.51
2018-11-11T03:19:57.955Z,11.37
2018-11-11T03:22:25.122Z,11.26
2018-11-11T03:24:52.393Z,11.17
2018-11-11T03:27:19.712Z,11.14
2018-11-11T03:29:46.984Z,11.10
2018-11-11T03:32:14.277Z,11.06
2018-11-11T03:34:41.556Z,11.07
2018-11-11T03:37:08.829Z,11.00
2018-11-11T03:39:36.049Z,10.99
2018-11-11T03:42:03.385Z,11.00
2018-11-11T03:44:30.640Z,10.89
2018-11-11T03:46:57.959Z,10.94
2018-11-11T03:49:25.511Z,10.93
2018-11-11T03:51:52.735Z,11.00
2018-11-11T03:54:19.999Z,10.97
2018-11-11T03:56:47.217Z,11.01
2018-11-11T03:59:14.457Z,11.07
2018-11-11T04:01:41.729Z,11.06
2018-11-11T04:04:09.041Z,11.06
2018-11-11T04:06:36.295Z,11.13
2018-11-11T04:09:07.234Z,11.11
2018-11-11T04:11:34.488Z,11.18
2018-11-11T04:14:01.763Z,11.17
2018-11-11T04:16:28.952Z,11.19
2018-11-11T04:18:56.200Z,11.26
2018-11-11T04:21:23.447Z,11.27
2018-11-11T04:23:51.488Z,11.38
2018-11-11T04:26:18.696Z,11.44
2018-11-11T04:28:46.016Z,11.47
2018-11-11T04:31:13.299Z,11.42
2018-11-11T04:33:40.764Z,11.33
2018-11-11T04:36:08.036Z,11.23
2018-11-11T04:38:35.248Z,11.19
2018-11-11T04:41:02.502Z,11.17
2018-11-11T04:43:29.763Z,11.10
2018-11-11T04:45:56.970Z,11.04
2018-11-11T04:48:24.262Z,11.01
2018-11-11T04:50:51.526Z,10.90
2018-11-11T04:53:18.883Z,10.88
2018-11-11T04:55:46.108Z,10.92
2018-11-11T04:58:13.479Z,10.92
2018-11-11T05:00:40.711Z,10.95
2018-11-11T05:03:07.980Z,10.98
2018-11-11T05:05:35.272Z,10.97
2018-11-11T05:08:02.461Z,10.95
2018-11-11T05:10:29.751Z,10.99
2018-11-11T05:12:57.047Z,11.03
2018-11-11T05:15:24.298Z,11.11
2018-11-11T05:17:51.555Z,11.11
2018-11-11T05:20:18.761Z,11.13
2018-11-11T05:22:45.996Z,11.16
2018-11-11T05:25:13.956Z,11.23
2018-11-11T05:27:41.554Z,11.29
2018-11-11T05:30:09.441Z,11.32
2018-11-11T05:32:36.693Z,11.34
2018-11-11T05:35:04.157Z,11.25
2018-11-11T05:37:31.393Z,11.16
2018-11-11T05:39:58.634Z,11.20
2018-11-11T05:42:29.032Z,11.22
2018-11-11T05:44:56.290Z,11.16
2018-11-11T05:47:23.578Z,11.10
2018-11-11T05:49:50.847Z,11.18
2018-11-11T05:52:18.080Z,11.13
2018-11-11T05:54:45.456Z,11.08
2018-11-11T05:57:12.675Z,11.06
2018-11-11T05:59:39.899Z,11.08
2018-11-11T06:02:07.135Z,11.08
2018-11-11T06:04:34.431Z,11.09
2018-11-11T06:07:01.656Z,11.07
2018-11-11T06:09:28.880Z,11.08
2018-11-11T06:11:56.127Z,11.11
2018-11-11T06:14:23.351Z,11.09
2018-11-11T06:16:50.619Z,11.08
2018-11-11T06:19:17.897Z,11.11
2018-11-11T06:21:45.157Z,11.14
2018-11-11T06:24:12.424Z,11.16
2018-11-11T06:26:39.707Z,11.13
2018-11-11T06:29:07.272Z,11.02
2018-11-11T06:31:34.522Z,10.84
2018-11-11T06:34:01.797Z,10.81
2018-11-11T06:36:29.003Z,10.79
2018-11-11T06:38:56.280Z,10.77
2018-11-11T06:41:23.511Z,10.83
2018-11-11T06:43:50.768Z,10.81
2018-11-11T06:46:18.075Z,10.84
2018-11-11T06:48:45.400Z,10.84
2018-11-11T06:51:12.601Z,10.83
2018-11-11T06:53:39.898Z,10.83
2018-11-11T06:56:10.719Z,10.91
2018-11-11T06:58:37.978Z,10.89
2018-11-11T07:01:05.324Z,10.90
2018-11-11T07:04:01.548Z,10.94
2018-11-11T07:06:29.234Z,10.95
2018-11-11T07:08:56.503Z,10.97
2018-11-11T07:11:23.743Z,10.97
2018-11-11T07:13:51.043Z,10.99
2018-11-11T07:16:18.330Z,10.97
2018-11-11T07:18:46.173Z,11.01
2018-11-11T07:21:15.092Z,11.00
2018-11-11T07:23:42.448Z,11.05
2018-11-11T07:26:09.784Z,11.10
2018-11-11T07:28:37.030Z,11.15
2018-11-11T07:31:04.976Z,11.20
2018-11-11T07:33:32.241Z,11.21
2018-11-11T07:35:59.567Z,11.22
2018-11-11T07:38:26.804Z,11.30
2018-11-11T07:40:54.065Z,11.52
2018-11-11T07:43:21.505Z,12.66
2018-11-11T07:45:49.357Z,13.44
2018-11-11T07:48:16.607Z,14.18
2018-11-11T07:50:43.841Z,14.28
2018-11-11T07:53:11.066Z,14.67
2018-11-11T07:55:38.362Z,14.71
2018-11-11T07:58:05.734Z,14.49
2018-11-11T08:00:32.937Z,15.01
2018-11-11T08:03:00.172Z,15.96
2018-11-11T08:05:27.423Z,16.73
2018-11-11T08:07:54.686Z,16.98
2018-11-11T08:10:33.402Z,17.03
2018-11-11T08:13:00.700Z,16.93
2018-11-11T08:15:27.952Z,16.89
2018-11-11T08:17:55.268Z,17.36
2018-11-11T08:20:22.559Z,18.08
2018-11-11T08:22:50.388Z,18.42
2018-11-11T08:25:17.717Z,19.09
2018-11-11T08:27:44.949Z,19.91
2018-11-11T08:30:12.186Z,21.05
2018-11-11T08:35:16.087Z,21.70
2018-11-11T08:37:43.391Z,22.57
2018-11-11T08:40:10.661Z,23.22
2018-11-11T08:42:37.964Z,23.23
2018-11-11T08:45:07.331Z,23.11
2018-11-11T08:47:34.608Z,23.83
2018-11-11T08:50:01.849Z,22.88
2018-11-11T08:52:29.120Z,22.14
2018-11-11T08:54:56.448Z,21.47
2018-11-11T08:57:23.724Z,20.73
2018-11-11T08:59:50.985Z,20.27
2018-11-11T09:02:18.282Z,20.36
2018-11-11T09:04:45.590Z,19.58
2018-11-11T09:07:12.731Z,19.67
2018-11-11T09:09:39.995Z,20.32
2018-11-11T09:12:07.282Z,19.57
2018-11-11T09:14:34.536Z,19.92
2018-11-11T09:17:01.788Z,20.00
2018-11-11T09:19:28.980Z,20.42
2018-11-11T09:21:56.240Z,20.08
2018-11-11T09:24:23.464Z,18.50
2018-11-11T09:26:50.738Z,18.84
2018-11-11T09:29:18.022Z,19.03
2018-11-11T09:31:45.299Z,19.27
2018-11-11T09:34:12.499Z,19.78
2018-11-11T09:36:39.711Z,19.27
2018-11-11T09:39:08.353Z,19.10
2018-11-11T09:41:35.550Z,19.01
2018-11-11T09:44:02.802Z,19.32
2018-11-11T09:46:30.063Z,19.74
2018-11-11T09:48:57.357Z,19.57
2018-11-11T09:51:24.646Z,19.89
2018-11-11T09:53:51.880Z,19.79
2018-11-11T09:56:19.129Z,18.95
2018-11-11T09:58:46.540Z,18.97
2018-11-11T10:01:13.705Z,19.12
2018-11-11T10:03:44.399Z,19.51
2018-11-11T10:06:22.526Z,19.63
2018-11-11T10:09:01.830Z,19.18
2018-11-11T10:11:36.088Z,17.59
2018-11-11T10:14:15.227Z,16.72
2018-11-11T10:17:46.466Z,16.79
2018-11-11T10:20:18.182Z,18.06
2018-11-11T10:22:49.637Z,17.73
2018-11-11T10:25:22.711Z,16.91
2018-11-11T10:27:55.443Z,16.12
2018-11-11T10:30:27.816Z,15.54
2018-11-11T10:33:17.130Z,15.39
2018-11-11T10:35:48.016Z,15.23
2018-11-11T10:38:20.966Z,15.11
2018-11-11T10:40:51.327Z,15.38
2018-11-11T10:43:38.669Z,15.03
2018-11-11T10:46:24.714Z,14.87
2018-11-11T10:48:57.711Z,14.54
2018-11-11T10:51:24.976Z,14.51
2018-11-11T10:53:52.173Z,14.43
2018-11-11T10:56:19.435Z,14.47
2018-11-11T10:58:46.734Z,14.54
2018-11-11T11:01:22.669Z,16.00
2018-11-11T11:03:50.480Z,16.88
2018-11-11T11:06:22.326Z,17.26
2018-11-11T11:08:55.366Z,17.65
2018-11-11T11:11:22.759Z,17.49
2018-11-11T11:13:50.113Z,17.79
2018-11-11T11:16:17.611Z,17.43
2018-11-11T11:18:44.943Z,17.43
2018-11-11T11:21:12.448Z,17.47
2018-11-11T11:23:39.853Z,17.60
2018-11-11T11:26:07.090Z,17.42
2018-11-11T11:28:34.431Z,17.00
2018-11-11T11:31:01.654Z,17.36
2018-11-11T11:33:28.891Z,17.57
2018-11-11T11:35:56.172Z,17.78
2018-11-11T11:38:23.473Z,17.67
2018-11-11T11:40:50.673Z,17.40
2018-11-11T11:43:17.879Z,17.16
2018-11-11T11:45:45.152Z,17.52
2018-11-11T11:48:12.394Z,17.30
2018-11-11T11:50:39.626Z,16.87
2018-11-11T11:53:06.875Z,16.54
2018-11-11T11:55:34.145Z,16.16
2018-11-11T11:58:14.903Z,15.80
2018-11-11T12:00:42.359Z,15.75
2018-11-11T12:03:09.595Z,15.60
2018-11-11T12:05:36.805Z,15.43
2018-11-11T12:08:04.078Z,15.23
2018-11-11T12:10:31.372Z,15.17
2018-11-11T12:12:58.597Z,15.10
2018-11-11T12:15:25.856Z,15.05
2018-11-11T12:17:53.104Z,15.27
2018-11-11T12:20:20.308Z,15.30
2018-11-11T12:22:47.661Z,15.24
2018-11-11T12:25:14.842Z,15.19
2018-11-11T12:27:42.115Z,15.15
2018-11-11T12:30:09.928Z,15.28
2018-11-11T12:32:37.360Z,15.42
2018-11-11T12:35:05.054Z,15.75
2018-11-11T12:37:32.265Z,15.78
2018-11-11T12:39:59.933Z,15.32
2018-11-11T12:42:27.090Z,15.67
2018-11-11T12:44:54.446Z,15.65
2018-11-11T12:47:21.579Z,16.00
2018-11-11T12:49:48.830Z,16.18
2018-11-11T12:52:16.107Z,16.03
2018-11-11T12:54:43.401Z,15.77
2018-11-11T12:57:10.651Z,15.53
2018-11-11T12:59:37.979Z,15.21
2018-11-11T13:02:05.281Z,15.45
2018-11-11T13:04:32.570Z,15.43
2018-11-11T13:06:59.782Z,15.45
2018-11-11T13:09:27.020Z,15.35
2018-11-11T13:11:54.255Z,15.34
2018-11-11T13:14:21.522Z,15.35
2018-11-11T13:16:48.701Z,15.28
2018-11-11T13:19:15.874Z,15.39
2018-11-11T13:21:43.183Z,15.48
2018-11-11T13:24:10.340Z,15.54
2018-11-11T13:26:37.542Z,15.57
2018-11-11T13:29:04.805Z,15.48
2018-11-11T13:31:32.044Z,15.46
2018-11-11T13:33:59.312Z,15.47
2018-11-11T13:36:26.565Z,15.41
2018-11-11T13:38:53.823Z,15.39
2018-11-11T13:41:21.108Z,15.53
2018-11-11T13:43:48.337Z,15.57
2018-11-11T13:46:15.620Z,15.56
2018-11-11T13:48:42.833Z,15.59
2018-11-11T13:51:10.061Z,15.74
2018-11-11T13:53:37.291Z,15.91
2018-11-11T13:56:04.578Z,16.10
2018-11-11T13:58:31.925Z,16.10
2018-11-11T14:00:59.166Z,15.90
2018-11-11T14:03:26.377Z,15.72
2018-11-11T14:05:53.698Z,15.58
2018-11-11T14:08:21.177Z,15.51
2018-11-11T14:10:48.550Z,15.59
2018-11-11T14:13:15.842Z,16.01
2018-11-11T14:15:43.191Z,16.51
2018-11-11T14:18:10.657Z,16.81
2018-11-11T14:20:37.922Z,17.01
2018-11-11T14:23:05.374Z,17.03
2018-11-11T14:25:32.637Z,17.13
2018-11-11T14:27:59.837Z,17.38
2018-11-11T14:30:27.847Z,17.48
2018-11-11T14:32:56.148Z,17.69
2018-11-11T14:35:23.468Z,17.64
2018-11-11T14:37:50.938Z,17.65
2018-11-11T14:40:22.666Z,17.63
2018-11-11T14:42:49.934Z,17.64
2018-11-11T14:45:18.020Z,17.63
2018-11-11T14:47:46.570Z,17.49
2018-11-11T14:50:14.782Z,17.20
2018-11-11T14:52:42.644Z,16.90
2018-11-11T14:55:13.665Z,17.01
2018-11-11T14:57:41.033Z,17.25
2018-11-11T15:00:10.467Z,17.42
2018-11-11T15:02:37.788Z,17.43
2018-11-11T15:05:06.856Z,17.53
2018-11-11T15:07:34.059Z,17.63
2018-11-11T15:10:01.308Z,17.48
2018-11-11T15:12:28.644Z,17.44
2018-11-11T15:14:55.891Z,17.28
2018-11-11T15:17:23.221Z,17.33
2018-11-11T15:19:50.586Z,17.58
2018-11-11T15:22:17.746Z,17.34
2018-11-11T15:24:45.091Z,16.98
2018-11-11T15:27:12.347Z,16.66
2018-11-11T15:29:39.653Z,16.54
2018-11-11T15:32:06.947Z,16.50
2018-11-11T15:34:34.200Z,16.24
2018-11-11T15:37:01.497Z,15.88
2018-11-11T15:39:28.779Z,15.61
2018-11-11T15:41:56.047Z,14.98
2018-11-11T15:44:23.274Z,14.50
2018-11-11T15:46:50.571Z,14.25
2018-11-11T15:49:18.805Z,14.07
2018-11-11T15:51:46.063Z,13.98
2018-11-11T15:54:13.362Z,13.82
2018-11-11T15:56:40.632Z,13.75
2018-11-11T15:59:07.937Z,13.70
2018-11-11T16:01:35.178Z,13.66
2018-11-11T16:04:02.485Z,13.61
2018-11-11T16:06:29.861Z,13.59
2018-11-11T16:08:57.363Z,13.50
2018-11-11T16:11:24.639Z,13.49
2018-11-11T16:13:52.069Z,13.43
2018-11-11T16:16:19.628Z,13.40
2018-11-11T16:18:46.883Z,13.33
2018-11-11T16:21:14.146Z,13.35
2018-11-11T16:23:41.518Z,13.38
2018-11-11T16:26:08.829Z,13.36
2018-11-11T16:28:36.249Z,13.29
2018-11-11T16:31:03.931Z,13.19
2018-11-11T16:33:31.265Z,13.18
2018-11-11T16:35:58.550Z,13.10
2018-11-11T16:38:25.796Z,13.11
2018-11-11T16:40:53.459Z,12.99
2018-11-11T16:43:20.889Z,12.97
2018-11-11T16:45:48.174Z,12.98
2018-11-11T16:48:15.515Z,12.94
2018-11-11T16:50:42.809Z,12.94
2018-11-11T16:53:10.356Z,13.01
2018-11-11T16:55:38.095Z,13.00
2018-11-11T16:58:05.459Z,12.98
2018-11-11T17:00:34.128Z,12.95
2018-11-11T17:03:02.367Z,12.81
2018-11-11T17:05:31.061Z,12.91
2018-11-11T17:07:58.408Z,12.90
2018-11-11T17:10:27.645Z,12.88
2018-11-11T17:12:56.170Z,12.86
2018-11-11T17:15:24.935Z,12.89
2018-11-11T17:17:52.173Z,12.86
2018-11-11T17:20:20.449Z,12.84
2018-11-11T17:22:48.580Z,12.82
2018-11-11T17:25:16.584Z,12.82
2018-11-11T17:27:44.194Z,12.85
2018-11-11T17:30:13.499Z,12.88
2018-11-11T17:32:41.301Z,12.96
2018-11-11T17:35:08.791Z,13.02
2018-11-11T17:37:36.017Z,13.02
2018-11-11T17:40:04.708Z,13.11
2018-11-11T17:42:31.874Z,13.12
2018-11-11T17:44:59.168Z,13.13
2018-11-11T17:47:26.452Z,13.04
2018-11-11T17:49:53.724Z,13.08
2018-11-11T17:52:21.002Z,12.97
2018-11-11T17:54:48.400Z,12.96
2018-11-11T17:57:15.660Z,12.83
2018-11-11T17:59:42.941Z,12.75
2018-11-11T18:02:10.223Z,12.68
2018-11-11T18:04:37.488Z,12.63
2018-11-11T18:07:04.851Z,12.58
2018-11-11T18:09:32.139Z,12.49
2018-11-11T18:11:59.403Z,12.43
2018-11-11T18:14:26.754Z,12.39
2018-11-11T18:16:54.057Z,12.35
2018-11-11T18:19:21.457Z,12.33
2018-11-11T18:21:48.668Z,12.28
2018-11-11T18:24:15.990Z,12.22
2018-11-11T18:26:43.224Z,12.23
2018-11-11T18:29:10.480Z,12.09
2018-11-11T18:31:37.774Z,12.24
2018-11-11T18:34:05.304Z,12.23
2018-11-11T18:36:32.996Z,12.24
2018-11-11T18:39:00.263Z,12.21
2018-11-11T18:41:27.524Z,12.20
2018-11-11T18:43:54.904Z,12.23
2018-11-11T18:46:22.183Z,12.23
2018-11-11T18:48:49.571Z,12.22
2018-11-11T18:51:16.836Z,12.13
2018-11-11T18:53:44.128Z,12.13
2018-11-11T18:56:11.400Z,12.15
2018-11-11T18:58:39.187Z,12.09
2018-11-11T19:01:06.435Z,12.09
2018-11-11T19:03:33.654Z,12.11
2018-11-11T19:06:00.916Z,12.10
2018-11-11T19:08:28.308Z,12.00
2018-11-11T19:10:55.717Z,12.01
2018-11-11T19:13:22.944Z,11.92
2018-11-11T19:15:50.172Z,11.94
2018-11-11T19:18:17.466Z,11.93
2018-11-11T19:20:44.685Z,11.95
2018-11-11T19:23:11.998Z,11.92
2018-11-11T19:25:39.252Z,11.91
2018-11-11T19:28:06.749Z,11.93
2018-11-11T19:30:33.991Z,11.88
2018-11-11T19:33:01.192Z,11.83
2018-11-11T19:35:28.438Z,11.80
2018-11-11T19:37:56.439Z,11.79
2018-11-11T19:40:24.835Z,11.74
2018-11-11T19:42:52.859Z,11.75
2018-11-11T19:45:21.493Z,11.74
2018-11-11T19:47:48.731Z,11.75
2018-11-11T19:50:17.371Z,11.73
2018-11-11T19:52:45.892Z,11.75
2018-11-11T19:55:13.964Z,11.74
2018-11-11T19:57:41.630Z,11.71
2018-11-11T20:00:13.099Z,11.68
2018-11-11T20:02:41.380Z,11.62
2018-11-11T20:05:10.150Z,11.57
2018-11-11T20:07:37.380Z,11.51
2018-11-11T20:10:06.714Z,11.61
2018-11-11T20:12:34.025Z,11.65
2018-11-11T20:15:01.353Z,11.60
2018-11-11T20:17:28.712Z,11.59
2018-11-11T20:19:55.984Z,11.60
2018-11-11T20:22:23.290Z,11.63
2018-11-11T20:24:50.686Z,11.62
2018-11-11T20:27:18.129Z,11.63
2018-11-11T20:29:45.348Z,11.60
2018-11-11T20:32:12.737Z,11.61
2018-11-11T20:34:39.969Z,11.58
2018-11-11T20:37:07.239Z,11.55
2018-11-11T20:39:34.605Z,11.56
2018-11-11T20:42:01.887Z,11.55
2018-11-11T20:44:29.147Z,11.55
2018-11-11T20:46:56.510Z,11.56
2018-11-11T20:49:23.793Z,11.57
2018-11-11T20:51:51.120Z,11.55
2018-11-11T20:54:18.453Z,11.51
2018-11-11T20:56:46.017Z,11.45
2018-11-11T20:59:13.283Z,11.47
2018-11-11T21:01:40.543Z,11.43
2018-11-11T21:04:07.921Z,11.43
2018-11-11T21:06:35.178Z,11.45
2018-11-11T21:09:02.965Z,11.47
2018-11-11T21:11:30.333Z,11.43
2018-11-11T21:13:57.685Z,11.46
2018-11-11T21:16:24.954Z,11.46
2018-11-11T21:18:53.083Z,11.53
2018-11-11T21:21:20.428Z,11.53
2018-11-11T21:23:47.620Z,11.56
2018-11-11T21:26:14.844Z,11.57
2018-11-11T21:28:42.014Z,11.57
2018-11-11T21:31:09.232Z,11.66
2018-11-11T21:33:36.477Z,11.70
2018-11-11T21:36:03.985Z,11.70
2018-11-11T21:38:31.339Z,11.73
2018-11-11T21:40:58.676Z,11.76
2018-11-11T21:43:26.009Z,11.71
2018-11-11T21:45:53.381Z,11.76
2018-11-11T21:48:20.725Z,11.76
2018-11-11T21:50:48.052Z,11.78
2018-11-11T21:53:26.528Z,11.77
2018-11-11T21:55:53.858Z,11.77
2018-11-11T21:58:21.157Z,11.78
2018-11-11T22:00:48.394Z,11.86
2018-11-11T22:03:15.629Z,11.84
2018-11-11T22:05:42.962Z,11.81
2018-11-11T22:08:10.183Z,11.83
2018-11-11T22:10:37.428Z,11.85
2018-11-11T22:13:05.076Z,11.84
2018-11-11T22:15:32.344Z,11.86
2018-11-11T22:17:59.648Z,11.93
2018-11-11T22:20:26.883Z,11.93
2018-11-11T22:22:54.190Z,11.92
2018-11-11T22:25:21.431Z,11.92
2018-11-11T22:27:48.621Z,11.89
2018-11-11T22:30:15.848Z,11.89
2018-11-11T22:32:43.121Z,11.85
2018-11-11T22:35:11.086Z,11.89
2018-11-11T22:37:38.345Z,11.91
2018-11-11T22:40:06.959Z,11.92
2018-11-11T22:42:34.402Z,11.88
2018-11-11T22:45:01.658Z,11.88
2018-11-11T22:47:28.923Z,11.90
2018-11-11T22:49:56.147Z,11.90
2018-11-11T22:52:23.389Z,11.86
2018-11-11T22:54:50.852Z,11.84
2018-11-11T22:57:18.072Z,11.85
2018-11-11T22:59:45.344Z,11.83
2018-11-11T23:02:12.636Z,11.84
2018-11-11T23:04:39.915Z,11.85
2018-11-11T23:07:07.149Z,11.79
2018-11-11T23:09:34.364Z,11.75
2018-11-11T23:12:01.672Z,11.72
2018-11-11T23:14:28.916Z,11.43
2018-11-11T23:16:56.128Z,11.71
2018-11-11T23:19:23.369Z,11.74
2018-11-11T23:21:50.601Z,11.73
2018-11-11T23:24:17.824Z,11.76
2018-11-11T23:26:45.388Z,11.76
2018-11-11T23:29:12.649Z,11.76
2018-11-11T23:31:39.890Z,11.73
2018-11-11T23:34:07.185Z,11.73
2018-11-11T23:36:34.432Z,11.67
2018-11-11T23:39:01.669Z,11.71
2018-11-11T23:41:28.909Z,11.72
2018-11-11T23:43:56.192Z,11.76
2018-11-11T23:46:23.467Z,11.75
2018-11-11T23:48:50.795Z,11.67
2018-11-11T23:51:18.021Z,11.66
2018-11-11T23:53:45.274Z,11.62
2018-11-11T23:56:12.529Z,11.56
2018-11-11T23:58:39.742Z,11.55
